sensor_id;sensor_type;location;lat;lon;timestamp;pressure;altitude;pressure_sealevel;temperature;humidity
60715;BME280;46564;53.096;8.246;2022-07-03T00:04:34;99334.00;;;16.95;58.45
60715;BME280;46564;53.096;8.246;2022-07-03T00:09:35;99323.59;;;16.89;58.44
60715;BME280;46564;53.096;8.246;2022-07-03T00:14:37;99330.63;;;16.90;58.75
60715;BME280;46564;53.096;8.246;2022-07-03T00:19:39;99310.56;;;16.83;59.05
60715;BME280;46564;53.096;8.246;2022-07-03T00:24:45;99287.06;;;16.73;59.33
60715;BME280;46564;53.096;8.246;2022-07-03T00:29:49;99249.50;;;16.64;59.34
60715;BME280;46564;53.096;8.246;2022-07-03T00:34:53;99232.06;;;16.58;59.66
60715;BME280;46564;53.096;8.246;2022-07-03T00:39:56;99223.41;;;16.53;59.98
60715;BME280;46564;53.096;8.246;2022-07-03T00:44:59;99209.50;;;16.48;60.09
60715;BME280;46564;53.096;8.246;2022-07-03T00:50:07;99172.88;;;16.37;60.55
60715;BME280;46564;53.096;8.246;2022-07-03T00:55:15;99141.53;;;16.26;60.60
60715;BME280;46564;53.096;8.246;2022-07-03T01:00:17;99099.66;;;16.14;60.94
60715;BME280;46564;53.096;8.246;2022-07-03T01:05:40;99064.72;;;16.05;61.15
60715;BME280;46564;53.096;8.246;2022-07-03T01:11:19;99018.59;;;15.90;61.36
60715;BME280;46564;53.096;8.246;2022-07-03T01:16:58;98961.91;;;15.74;61.70
60715;BME280;46564;53.096;8.246;2022-07-03T01:27:29;98979.44;;;15.77;62.02
60715;BME280;46564;53.096;8.246;2022-07-03T01:32:42;98998.72;;;15.79;62.32
60715;BME280;46564;53.096;8.246;2022-07-03T01:37:45;99002.28;;;15.78;62.65
60715;BME280;46564;53.096;8.246;2022-07-03T01:42:48;99011.03;;;15.80;62.94
60715;BME280;46564;53.096;8.246;2022-07-03T01:47:51;99060.06;;;15.87;63.15
60715;BME280;46564;53.096;8.246;2022-07-03T01:52:54;99034.78;;;15.80;63.25
60715;BME280;46564;53.096;8.246;2022-07-03T01:57:57;99036.59;;;15.78;63.63
60715;BME280;46564;53.096;8.246;2022-07-03T02:03:04;99049.72;;;15.79;63.72
60715;BME280;46564;53.096;8.246;2022-07-03T02:08:37;99106.50;;;15.93;64.19
60715;BME280;46564;53.096;8.246;2022-07-03T02:14:19;99117.94;;;15.93;64.50
60715;BME280;46564;53.096;8.246;2022-07-03T02:19:37;99093.53;;;15.85;64.46
60715;BME280;46564;53.096;8.246;2022-07-03T02:24:43;99035.94;;;15.69;64.69
60715;BME280;46564;53.096;8.246;2022-07-03T02:29:54;99013.31;;;15.62;65.19
60715;BME280;46564;53.096;8.246;2022-07-03T02:35:02;98988.97;;;15.54;65.13
60715;BME280;46564;53.096;8.246;2022-07-03T02:40:50;98972.34;;;15.50;65.52
60715;BME280;46564;53.096;8.246;2022-07-03T02:46:26;98962.88;;;15.45;65.76
60715;BME280;46564;53.096;8.246;2022-07-03T02:57:10;98981.34;;;15.45;66.26
60715;BME280;46564;53.096;8.246;2022-07-03T03:13:04;99049.59;;;15.55;66.84
60715;BME280;46564;53.096;8.246;2022-07-03T03:18:09;99053.06;;;15.56;67.09
60715;BME280;46564;53.096;8.246;2022-07-03T03:23:29;99078.44;;;15.60;67.35
60715;BME280;46564;53.096;8.246;2022-07-03T03:28:33;99080.25;;;15.58;67.38
60715;BME280;46564;53.096;8.246;2022-07-03T03:33:45;99095.19;;;15.59;67.71
60715;BME280;46564;53.096;8.246;2022-07-03T03:38:47;99107.44;;;15.62;68.08
60715;BME280;46564;53.096;8.246;2022-07-03T03:43:50;99151.94;;;15.72;68.00
60715;BME280;46564;53.096;8.246;2022-07-03T03:48:52;99194.88;;;15.79;68.39
60715;BME280;46564;53.096;8.246;2022-07-03T03:53:53;99214.09;;;15.84;68.67
60715;BME280;46564;53.096;8.246;2022-07-03T03:58:55;99222.00;;;15.84;68.65
60715;BME280;46564;53.096;8.246;2022-07-03T04:03:56;99245.72;;;15.86;69.01
60715;BME280;46564;53.096;8.246;2022-07-03T04:09:00;99252.72;;;15.87;69.13
60715;BME280;46564;53.096;8.246;2022-07-03T04:14:02;99309.53;;;16.00;69.30
60715;BME280;46564;53.096;8.246;2022-07-03T04:19:03;99340.16;;;16.06;69.50
60715;BME280;46564;53.096;8.246;2022-07-03T04:24:05;99348.91;;;16.08;69.73
60715;BME280;46564;53.096;8.246;2022-07-03T04:29:07;99348.97;;;16.06;69.89
60715;BME280;46564;53.096;8.246;2022-07-03T04:34:09;99352.50;;;16.05;70.01
60715;BME280;46564;53.096;8.246;2022-07-03T04:39:10;99344.66;;;16.02;70.30
60715;BME280;46564;53.096;8.246;2022-07-03T04:44:12;99363.06;;;16.05;70.70
60715;BME280;46564;53.096;8.246;2022-07-03T04:49:14;99387.56;;;16.11;70.65
60715;BME280;46564;53.096;8.246;2022-07-03T04:54:15;99399.03;;;16.10;70.76
60715;BME280;46564;53.096;8.246;2022-07-03T04:59:17;99410.38;;;16.13;70.96
60715;BME280;46564;53.096;8.246;2022-07-03T05:04:18;99441.94;;;16.18;71.31
60715;BME280;46564;53.096;8.246;2022-07-03T05:09:20;99486.56;;;16.27;71.32
60715;BME280;46564;53.096;8.246;2022-07-03T05:14:21;99559.25;;;16.42;71.53
60715;BME280;46564;53.096;8.246;2022-07-03T05:19:23;99631.00;;;16.61;71.69
60715;BME280;46564;53.096;8.246;2022-07-03T05:24:25;99709.03;;;16.76;71.89
60715;BME280;46564;53.096;8.246;2022-07-03T05:29:26;99828.25;;;17.03;72.00
60715;BME280;46564;53.096;8.246;2022-07-03T05:34:28;99918.53;;;17.23;72.29
60715;BME280;46564;53.096;8.246;2022-07-03T05:39:30;100033.47;;;17.51;72.57
60715;BME280;46564;53.096;8.246;2022-07-03T05:44:34;100208.22;;;17.88;72.62
60715;BME280;46564;53.096;8.246;2022-07-03T05:49:35;100310.97;;;18.14;72.56
60715;BME280;46564;53.096;8.246;2022-07-03T05:54:37;100520.28;;;18.61;73.08
60715;BME280;46564;53.096;8.246;2022-07-03T05:59:39;100665.56;;;18.94;72.99
60715;BME280;46564;53.096;8.246;2022-07-03T06:04:40;100773.88;;;19.18;73.17
60715;BME280;46564;53.096;8.246;2022-07-03T06:09:43;100851.47;;;19.33;73.28
60715;BME280;46564;53.096;8.246;2022-07-03T06:14:45;100917.56;;;19.50;73.04
60715;BME280;46564;53.096;8.246;2022-07-03T06:19:47;101036.63;;;19.76;73.53
60715;BME280;46564;53.096;8.246;2022-07-03T06:24:49;101331.53;;;20.43;73.20
60715;BME280;46564;53.096;8.246;2022-07-03T06:29:50;101614.50;;;21.07;73.68
60715;BME280;46564;53.096;8.246;2022-07-03T06:34:52;101718.06;;;21.32;73.24
60715;BME280;46564;53.096;8.246;2022-07-03T06:39:53;101813.72;;;21.53;73.43
60715;BME280;46564;53.096;8.246;2022-07-03T06:44:55;101833.16;;;21.60;73.27
60715;BME280;46564;53.096;8.246;2022-07-03T06:49:57;101826.06;;;21.61;73.05
60715;BME280;46564;53.096;8.246;2022-07-03T06:54:58;101830.50;;;21.60;72.63
60715;BME280;46564;53.096;8.246;2022-07-03T07:00:00;102086.66;;;22.21;72.65
60715;BME280;46564;53.096;8.246;2022-07-03T07:05:02;102537.00;;;23.23;72.50
60715;BME280;46564;53.096;8.246;2022-07-03T07:10:04;102885.88;;;24.01;72.11
60715;BME280;46564;53.096;8.246;2022-07-03T07:15:06;103222.00;;;24.76;72.16
60715;BME280;46564;53.096;8.246;2022-07-03T07:20:08;103491.66;;;25.39;71.82
60715;BME280;46564;53.096;8.246;2022-07-03T07:25:09;103766.16;;;26.03;71.47
60715;BME280;46564;53.096;8.246;2022-07-03T07:30:11;103948.78;;;26.48;70.81
60715;BME280;46564;53.096;8.246;2022-07-03T07:35:12;104110.09;;;26.88;70.08
60715;BME280;46564;53.096;8.246;2022-07-03T07:40:14;104232.91;;;27.20;69.17
60715;BME280;46564;53.096;8.246;2022-07-03T07:45:16;104229.34;;;27.27;68.56
60715;BME280;46564;53.096;8.246;2022-07-03T07:50:18;104239.25;;;27.39;67.61
60715;BME280;46564;53.096;8.246;2022-07-03T07:55:19;104523.84;;;28.06;66.96
60715;BME280;46564;53.096;8.246;2022-07-03T08:00:21;104588.56;;;28.28;65.97
60715;BME280;46564;53.096;8.246;2022-07-03T08:05:23;104511.28;;;28.19;65.22
60715;BME280;46564;53.096;8.246;2022-07-03T08:10:45;104429.56;;;28.11;64.86
60715;BME280;46564;53.096;8.246;2022-07-03T08:15:47;104244.59;;;27.79;63.84
60715;BME280;46564;53.096;8.246;2022-07-03T08:20:48;104531.06;;;28.49;63.17
60715;BME280;46564;53.096;8.246;2022-07-03T08:25:50;104513.09;;;28.52;62.70
60715;BME280;46564;53.096;8.246;2022-07-03T08:30:51;104465.50;;;28.51;61.72
60715;BME280;46564;53.096;8.246;2022-07-03T08:35:53;104456.50;;;28.57;61.01
60715;BME280;46564;53.096;8.246;2022-07-03T08:40:54;104548.19;;;28.85;60.62
60715;BME280;46564;53.096;8.246;2022-07-03T08:45:59;104598.50;;;29.04;59.77
60715;BME280;46564;53.096;8.246;2022-07-03T08:51:02;104557.16;;;29.02;59.15
60715;BME280;46564;53.096;8.246;2022-07-03T08:56:04;104271.44;;;28.48;58.17
60715;BME280;46564;53.096;8.246;2022-07-03T09:01:06;104420.50;;;28.89;57.77
60715;BME280;46564;53.096;8.246;2022-07-03T09:06:08;104260.63;;;28.62;57.19
60715;BME280;46564;53.096;8.246;2022-07-03T09:11:10;104109.78;;;28.33;56.56
60715;BME280;46564;53.096;8.246;2022-07-03T09:16:16;104313.53;;;28.85;56.38
60715;BME280;46564;53.096;8.246;2022-07-03T09:21:18;104406.03;;;29.12;55.79
60715;BME280;46564;53.096;8.246;2022-07-03T09:26:21;104368.28;;;29.12;55.13
60715;BME280;46564;53.096;8.246;2022-07-03T09:31:28;104211.09;;;28.82;54.87
60715;BME280;46564;53.096;8.246;2022-07-03T09:36:42;104082.69;;;28.59;53.90
60715;BME280;46564;53.096;8.246;2022-07-03T09:41:58;104211.91;;;28.96;53.64
60715;BME280;46564;53.096;8.246;2022-07-03T09:52:31;104342.06;;;29.37;52.62
60715;BME280;46564;53.096;8.246;2022-07-03T09:57:33;104213.56;;;29.16;52.22
60715;BME280;46564;53.096;8.246;2022-07-03T10:02:35;104198.22;;;29.19;51.77
60715;BME280;46564;53.096;8.246;2022-07-03T10:08:00;103954.13;;;28.67;51.00
60715;BME280;46564;53.096;8.246;2022-07-03T10:13:03;103736.28;;;28.24;50.93
60715;BME280;46564;53.096;8.246;2022-07-03T10:18:09;104143.38;;;29.22;50.59
60715;BME280;46564;53.096;8.246;2022-07-03T10:23:11;103934.25;;;28.79;50.24
60715;BME280;46564;53.096;8.246;2022-07-03T10:28:14;104003.25;;;29.02;49.54
60715;BME280;46564;53.096;8.246;2022-07-03T10:33:17;104068.72;;;29.18;49.39
60715;BME280;46564;53.096;8.246;2022-07-03T10:38:38;104012.16;;;29.12;48.96
60715;BME280;46564;53.096;8.246;2022-07-03T10:43:51;103909.84;;;28.93;48.73
60715;BME280;46564;53.096;8.246;2022-07-03T10:49:12;103457.38;;;27.95;48.18
60715;BME280;46564;53.096;8.246;2022-07-03T10:54:16;103242.78;;;27.47;47.90
60715;BME280;46564;53.096;8.246;2022-07-03T10:59:19;103004.25;;;26.95;47.90
60715;BME280;46564;53.096;8.246;2022-07-03T11:04:20;102955.16;;;26.84;47.37
60715;BME280;46564;53.096;8.246;2022-07-03T11:09:22;102908.75;;;26.75;47.33
60715;BME280;46564;53.096;8.246;2022-07-03T11:14:28;102825.69;;;26.58;47.14
60715;BME280;46564;53.096;8.246;2022-07-03T11:19:31;102810.53;;;26.56;47.01
60715;BME280;46564;53.096;8.246;2022-07-03T11:24:43;102640.28;;;26.16;46.95
60715;BME280;46564;53.096;8.246;2022-07-03T11:29:55;102864.03;;;26.71;47.26
60715;BME280;46564;53.096;8.246;2022-07-03T11:34:56;103066.53;;;27.20;47.37
60715;BME280;46564;53.096;8.246;2022-07-03T11:40:04;102905.91;;;26.83;47.25
60715;BME280;46564;53.096;8.246;2022-07-03T11:45:06;102902.28;;;26.84;46.99
60715;BME280;46564;53.096;8.246;2022-07-03T11:50:08;102764.94;;;26.51;46.64
60715;BME280;46564;53.096;8.246;2022-07-03T11:55:10;102977.22;;;27.04;46.98
60715;BME280;46564;53.096;8.246;2022-07-03T12:00:12;103256.75;;;27.71;46.95
60715;BME280;46564;53.096;8.246;2022-07-03T12:05:14;103263.00;;;27.75;46.62
60715;BME280;46564;53.096;8.246;2022-07-03T12:10:38;102952.09;;;27.04;46.30
60715;BME280;46564;53.096;8.246;2022-07-03T12:15:40;102870.03;;;26.84;46.31
60715;BME280;46564;53.096;8.246;2022-07-03T12:20:42;102789.72;;;26.69;46.48
60715;BME280;46564;53.096;8.246;2022-07-03T12:25:43;102600.78;;;26.24;46.35
60715;BME280;46564;53.096;8.246;2022-07-03T12:30:45;102489.44;;;25.99;46.28
60715;BME280;46564;53.096;8.246;2022-07-03T12:36:05;102681.78;;;26.45;46.33
60715;BME280;46564;53.096;8.246;2022-07-03T12:41:08;102745.91;;;26.63;45.91
60715;BME280;46564;53.096;8.246;2022-07-03T12:51:46;103139.44;;;27.59;45.89
60715;BME280;46564;53.096;8.246;2022-07-03T12:57:04;103219.88;;;27.78;46.06
60715;BME280;46564;53.096;8.246;2022-07-03T13:02:26;103276.13;;;27.93;45.78
60715;BME280;46564;53.096;8.246;2022-07-03T13:07:29;103286.88;;;27.95;45.85
60715;BME280;46564;53.096;8.246;2022-07-03T13:12:31;103254.66;;;27.90;46.33
60715;BME280;46564;53.096;8.246;2022-07-03T13:22:58;103321.72;;;28.06;45.96
60715;BME280;46564;53.096;8.246;2022-07-03T13:28:05;103265.38;;;27.93;46.49
60715;BME280;46564;53.096;8.246;2022-07-03T13:33:08;103297.56;;;28.01;46.12
60715;BME280;46564;53.096;8.246;2022-07-03T13:38:10;102848.38;;;26.93;46.31
60715;BME280;46564;53.096;8.246;2022-07-03T13:43:12;102510.56;;;26.16;46.54
60715;BME280;46564;53.096;8.246;2022-07-03T13:48:13;102249.84;;;25.53;46.26
60715;BME280;46564;53.096;8.246;2022-07-03T13:53:15;102098.75;;;25.16;46.18
60715;BME280;46564;53.096;8.246;2022-07-03T13:58:17;102434.88;;;25.97;46.40
60715;BME280;46564;53.096;8.246;2022-07-03T14:03:19;102619.22;;;26.41;46.57
60715;BME280;46564;53.096;8.246;2022-07-03T14:08:20;102853.72;;;26.96;46.54
60715;BME280;46564;53.096;8.246;2022-07-03T14:13:22;103050.94;;;27.44;46.84
60715;BME280;46564;53.096;8.246;2022-07-03T14:18:24;102989.28;;;27.30;46.67
60715;BME280;46564;53.096;8.246;2022-07-03T14:23:25;102801.94;;;26.85;46.84
60715;BME280;46564;53.096;8.246;2022-07-03T14:28:27;102797.44;;;26.86;46.68
60715;BME280;46564;53.096;8.246;2022-07-03T14:33:52;102726.09;;;26.69;46.31
60715;BME280;46564;53.096;8.246;2022-07-03T14:38:53;102664.50;;;26.58;46.26
60715;BME280;46564;53.096;8.246;2022-07-03T14:43:55;102798.25;;;26.91;46.33
60715;BME280;46564;53.096;8.246;2022-07-03T14:48:56;102876.75;;;27.10;46.17
60715;BME280;46564;53.096;8.246;2022-07-03T14:53:58;102788.44;;;26.88;46.30
60715;BME280;46564;53.096;8.246;2022-07-03T14:59:08;102555.75;;;26.36;46.00
60715;BME280;46564;53.096;8.246;2022-07-03T15:10:35;102369.63;;;25.94;45.90
60715;BME280;46564;53.096;8.246;2022-07-03T15:15:13;102257.56;;;25.67;45.97
60715;BME280;46564;53.096;8.246;2022-07-03T15:20:16;102504.94;;;26.26;46.03
60715;BME280;46564;53.096;8.246;2022-07-03T15:25:18;102791.88;;;26.96;45.88
60715;BME280;46564;53.096;8.246;2022-07-03T15:30:22;102488.88;;;26.25;46.15
60715;BME280;46564;53.096;8.246;2022-07-03T15:35:24;102491.53;;;26.26;45.71
60715;BME280;46564;53.096;8.246;2022-07-03T15:51:20;102192.59;;;25.55;45.62
60715;BME280;46564;53.096;8.246;2022-07-03T15:56:35;102107.19;;;25.37;45.77
60715;BME280;46564;53.096;8.246;2022-07-03T16:01:53;102345.47;;;25.94;45.97
60715;BME280;46564;53.096;8.246;2022-07-03T16:07:15;102225.38;;;25.67;45.63
60715;BME280;46564;53.096;8.246;2022-07-03T16:12:17;102132.03;;;25.45;45.56
60715;BME280;46564;53.096;8.246;2022-07-03T16:17:27;101615.56;;;24.18;45.75
60715;BME280;46564;53.096;8.246;2022-07-03T16:22:33;101574.78;;;24.09;45.68
60715;BME280;46564;53.096;8.246;2022-07-03T16:27:35;101682.88;;;24.36;45.62
60715;BME280;46564;53.096;8.246;2022-07-03T16:32:39;101730.75;;;24.47;45.76
60715;BME280;46564;53.096;8.246;2022-07-03T16:37:47;101596.94;;;24.14;45.74
60715;BME280;46564;53.096;8.246;2022-07-03T16:42:51;101558.03;;;24.02;45.65
60715;BME280;46564;53.096;8.246;2022-07-03T16:47:56;101532.34;;;23.96;45.90
60715;BME280;46564;53.096;8.246;2022-07-03T16:52:58;101562.44;;;24.03;45.86
60715;BME280;46564;53.096;8.246;2022-07-03T16:58:00;101501.34;;;23.88;46.10
60715;BME280;46564;53.096;8.246;2022-07-03T17:03:04;101489.84;;;23.84;46.20
60715;BME280;46564;53.096;8.246;2022-07-03T17:08:06;101295.09;;;23.37;46.29
60715;BME280;46564;53.096;8.246;2022-07-03T17:13:09;101155.47;;;22.99;46.29
60715;BME280;46564;53.096;8.246;2022-07-03T17:18:12;100837.59;;;22.19;46.24
60715;BME280;46564;53.096;8.246;2022-07-03T17:23:23;100852.50;;;22.24;46.59
60715;BME280;46564;53.096;8.246;2022-07-03T17:28:25;100982.41;;;22.54;46.81
60715;BME280;46564;53.096;8.246;2022-07-03T17:33:28;100975.41;;;22.50;46.88
60715;BME280;46564;53.096;8.246;2022-07-03T17:38:32;100826.22;;;22.12;46.95
60715;BME280;46564;53.096;8.246;2022-07-03T17:43:46;100566.22;;;21.44;47.06
60715;BME280;46564;53.096;8.246;2022-07-03T17:48:53;100317.13;;;20.81;47.27
60715;BME280;46564;53.096;8.246;2022-07-03T17:53:56;100080.66;;;20.20;47.23
60715;BME280;46564;53.096;8.246;2022-07-03T17:58:58;99934.97;;;19.81;47.80
60715;BME280;46564;53.096;8.246;2022-07-03T18:04:00;99769.22;;;19.36;48.01
60715;BME280;46564;53.096;8.246;2022-07-03T18:09:28;99791.22;;;19.40;48.18
